TAF KHKY
KHKY 080000Z 0800/0824 VRB02KT P6SM BKN090 FM080700 00000KT P6SM VCSH BKN050 TEMPO 0809/0811 6SM -RA BR OVC025 FM081200 00000KT P6SM OVC030 FM081700 30003KT P6SM SCT040 FM082100 28004KT P6SM FEW250=
METAR KHKY
WC KHKY
WS KHKY
WV KHKY